sensor_id;sensor_type;location;lat;lon;timestamp;temperature;humidity
38488;DHT22;57384;51.986;4.458;2023-08-20T00:01:12;20.70;62.00
38488;DHT22;57384;51.986;4.458;2023-08-20T00:03:41;20.70;61.80
38488;DHT22;57384;51.986;4.458;2023-08-20T00:06:08;20.60;62.00
38488;DHT22;57384;51.986;4.458;2023-08-20T00:08:35;20.60;61.70
38488;DHT22;57384;51.986;4.458;2023-08-20T00:11:04;20.60;61.50
38488;DHT22;57384;51.986;4.458;2023-08-20T00:13:35;20.50;62.30
38488;DHT22;57384;51.986;4.458;2023-08-20T00:16:02;20.50;62.10
38488;DHT22;57384;51.986;4.458;2023-08-20T00:18:30;20.50;62.20
38488;DHT22;57384;51.986;4.458;2023-08-20T00:20:57;20.50;62.30
38488;DHT22;57384;51.986;4.458;2023-08-20T00:23:24;20.50;61.90
38488;DHT22;57384;51.986;4.458;2023-08-20T00:25:56;20.50;62.10
38488;DHT22;57384;51.986;4.458;2023-08-20T00:28:23;20.50;62.20
38488;DHT22;57384;51.986;4.458;2023-08-20T00:30:49;20.50;62.40
38488;DHT22;57384;51.986;4.458;2023-08-20T00:33:18;20.40;62.40
38488;DHT22;57384;51.986;4.458;2023-08-20T00:35:46;20.40;62.50
38488;DHT22;57384;51.986;4.458;2023-08-20T00:38:13;20.50;62.60
38488;DHT22;57384;51.986;4.458;2023-08-20T00:40:39;20.50;62.70
38488;DHT22;57384;51.986;4.458;2023-08-20T00:43:06;20.40;62.60
38488;DHT22;57384;51.986;4.458;2023-08-20T00:45:34;20.40;62.70
38488;DHT22;57384;51.986;4.458;2023-08-20T00:48:01;20.40;62.80
38488;DHT22;57384;51.986;4.458;2023-08-20T00:50:28;20.40;62.60
38488;DHT22;57384;51.986;4.458;2023-08-20T00:52:55;20.50;63.60
38488;DHT22;57384;51.986;4.458;2023-08-20T00:55:21;20.40;62.90
38488;DHT22;57384;51.986;4.458;2023-08-20T00:57:48;20.50;63.10
38488;DHT22;57384;51.986;4.458;2023-08-20T01:00:17;20.40;63.10
38488;DHT22;57384;51.986;4.458;2023-08-20T01:02:44;20.40;63.20
38488;DHT22;57384;51.986;4.458;2023-08-20T01:05:12;20.40;63.10
38488;DHT22;57384;51.986;4.458;2023-08-20T01:08:02;20.40;63.10
38488;DHT22;57384;51.986;4.458;2023-08-20T01:13:15;20.40;63.70
38488;DHT22;57384;51.986;4.458;2023-08-20T01:15:42;20.40;63.90
38488;DHT22;57384;51.986;4.458;2023-08-20T01:18:15;20.40;64.10
38488;DHT22;57384;51.986;4.458;2023-08-20T01:20:50;20.40;65.10
38488;DHT22;57384;51.986;4.458;2023-08-20T01:29:23;20.40;64.30
38488;DHT22;57384;51.986;4.458;2023-08-20T01:31:54;20.30;64.30
38488;DHT22;57384;51.986;4.458;2023-08-20T01:34:21;20.30;64.20
38488;DHT22;57384;51.986;4.458;2023-08-20T01:36:51;20.40;64.20
38488;DHT22;57384;51.986;4.458;2023-08-20T01:39:19;20.30;64.30
38488;DHT22;57384;51.986;4.458;2023-08-20T01:41:46;20.30;64.20
38488;DHT22;57384;51.986;4.458;2023-08-20T01:44:14;20.30;64.20
38488;DHT22;57384;51.986;4.458;2023-08-20T01:46:40;20.30;64.10
38488;DHT22;57384;51.986;4.458;2023-08-20T01:49:15;20.30;64.10
38488;DHT22;57384;51.986;4.458;2023-08-20T01:51:45;20.30;64.20
38488;DHT22;57384;51.986;4.458;2023-08-20T01:54:12;20.30;64.20
38488;DHT22;57384;51.986;4.458;2023-08-20T01:56:39;20.20;64.30
38488;DHT22;57384;51.986;4.458;2023-08-20T01:59:07;20.20;64.40
38488;DHT22;57384;51.986;4.458;2023-08-20T02:01:34;20.20;64.30
38488;DHT22;57384;51.986;4.458;2023-08-20T02:04:01;20.20;64.40
38488;DHT22;57384;51.986;4.458;2023-08-20T02:06:30;20.20;64.40
38488;DHT22;57384;51.986;4.458;2023-08-20T02:09:03;20.10;64.40
38488;DHT22;57384;51.986;4.458;2023-08-20T02:11:30;20.10;64.40
38488;DHT22;57384;51.986;4.458;2023-08-20T02:13:58;20.10;64.50
38488;DHT22;57384;51.986;4.458;2023-08-20T02:16:25;20.10;64.60
38488;DHT22;57384;51.986;4.458;2023-08-20T02:18:52;20.10;64.40
38488;DHT22;57384;51.986;4.458;2023-08-20T02:21:19;20.00;64.40
38488;DHT22;57384;51.986;4.458;2023-08-20T02:23:48;20.00;64.40
38488;DHT22;57384;51.986;4.458;2023-08-20T02:26:16;20.00;64.60
38488;DHT22;57384;51.986;4.458;2023-08-20T02:28:43;20.00;64.60
38488;DHT22;57384;51.986;4.458;2023-08-20T02:31:10;19.90;64.80
38488;DHT22;57384;51.986;4.458;2023-08-20T02:33:37;19.90;64.70
38488;DHT22;57384;51.986;4.458;2023-08-20T02:36:08;19.90;64.80
38488;DHT22;57384;51.986;4.458;2023-08-20T02:38:37;19.90;65.00
38488;DHT22;57384;51.986;4.458;2023-08-20T02:41:04;19.90;64.90
38488;DHT22;57384;51.986;4.458;2023-08-20T02:43:31;19.90;65.20
38488;DHT22;57384;51.986;4.458;2023-08-20T02:45:58;19.80;65.00
38488;DHT22;57384;51.986;4.458;2023-08-20T02:48:27;19.80;65.10
38488;DHT22;57384;51.986;4.458;2023-08-20T02:50:54;19.80;65.20
38488;DHT22;57384;51.986;4.458;2023-08-20T02:53:24;19.80;65.30
38488;DHT22;57384;51.986;4.458;2023-08-20T02:55:52;19.70;65.40
38488;DHT22;57384;51.986;4.458;2023-08-20T02:58:20;19.70;65.40
38488;DHT22;57384;51.986;4.458;2023-08-20T03:00:47;19.70;65.40
38488;DHT22;57384;51.986;4.458;2023-08-20T03:03:17;19.70;65.40
38488;DHT22;57384;51.986;4.458;2023-08-20T03:05:44;19.70;65.50
38488;DHT22;57384;51.986;4.458;2023-08-20T03:08:12;19.70;65.60
38488;DHT22;57384;51.986;4.458;2023-08-20T03:10:41;19.70;65.60
38488;DHT22;57384;51.986;4.458;2023-08-20T03:13:10;19.70;65.90
38488;DHT22;57384;51.986;4.458;2023-08-20T03:15:44;19.60;65.60
38488;DHT22;57384;51.986;4.458;2023-08-20T03:18:12;19.60;65.50
38488;DHT22;57384;51.986;4.458;2023-08-20T03:20:40;19.60;65.70
38488;DHT22;57384;51.986;4.458;2023-08-20T03:23:08;19.60;65.60
38488;DHT22;57384;51.986;4.458;2023-08-20T03:25:36;19.60;65.80
38488;DHT22;57384;51.986;4.458;2023-08-20T03:28:04;19.60;65.80
38488;DHT22;57384;51.986;4.458;2023-08-20T03:30:32;19.50;65.70
38488;DHT22;57384;51.986;4.458;2023-08-20T03:33:01;19.60;66.00
38488;DHT22;57384;51.986;4.458;2023-08-20T03:35:31;19.50;65.80
38488;DHT22;57384;51.986;4.458;2023-08-20T03:37:58;19.50;65.80
38488;DHT22;57384;51.986;4.458;2023-08-20T03:40:27;19.50;66.00
38488;DHT22;57384;51.986;4.458;2023-08-20T03:42:57;19.40;66.00
38488;DHT22;57384;51.986;4.458;2023-08-20T03:45:23;19.40;66.30
38488;DHT22;57384;51.986;4.458;2023-08-20T03:47:51;19.40;66.20
38488;DHT22;57384;51.986;4.458;2023-08-20T03:50:18;19.40;66.10
38488;DHT22;57384;51.986;4.458;2023-08-20T03:52:45;19.40;66.20
38488;DHT22;57384;51.986;4.458;2023-08-20T03:55:14;19.30;66.10
38488;DHT22;57384;51.986;4.458;2023-08-20T03:57:42;19.40;66.20
38488;DHT22;57384;51.986;4.458;2023-08-20T04:00:10;19.30;66.20
38488;DHT22;57384;51.986;4.458;2023-08-20T04:02:38;19.30;66.20
38488;DHT22;57384;51.986;4.458;2023-08-20T04:05:06;19.30;66.40
38488;DHT22;57384;51.986;4.458;2023-08-20T04:07:33;19.30;66.50
38488;DHT22;57384;51.986;4.458;2023-08-20T04:10:02;19.20;66.30
38488;DHT22;57384;51.986;4.458;2023-08-20T04:12:42;19.20;66.60
38488;DHT22;57384;51.986;4.458;2023-08-20T04:15:11;19.20;66.40
38488;DHT22;57384;51.986;4.458;2023-08-20T04:17:38;19.10;66.40
38488;DHT22;57384;51.986;4.458;2023-08-20T04:20:05;19.10;66.40
38488;DHT22;57384;51.986;4.458;2023-08-20T04:22:32;19.10;66.40
38488;DHT22;57384;51.986;4.458;2023-08-20T04:25:02;19.10;66.20
38488;DHT22;57384;51.986;4.458;2023-08-20T04:27:30;19.00;66.30
38488;DHT22;57384;51.986;4.458;2023-08-20T04:29:57;19.00;66.40
38488;DHT22;57384;51.986;4.458;2023-08-20T04:32:30;19.00;66.40
38488;DHT22;57384;51.986;4.458;2023-08-20T04:34:57;19.00;66.40
38488;DHT22;57384;51.986;4.458;2023-08-20T04:37:24;18.90;66.30
38488;DHT22;57384;51.986;4.458;2023-08-20T04:39:51;18.90;66.30
38488;DHT22;57384;51.986;4.458;2023-08-20T04:42:20;18.90;66.30
38488;DHT22;57384;51.986;4.458;2023-08-20T04:44:47;18.90;66.30
38488;DHT22;57384;51.986;4.458;2023-08-20T04:47:18;18.90;66.40
38488;DHT22;57384;51.986;4.458;2023-08-20T04:49:50;18.80;66.30
38488;DHT22;57384;51.986;4.458;2023-08-20T04:52:20;18.80;66.50
38488;DHT22;57384;51.986;4.458;2023-08-20T04:54:48;18.80;66.60
38488;DHT22;57384;51.986;4.458;2023-08-20T04:57:17;18.80;66.80
38488;DHT22;57384;51.986;4.458;2023-08-20T04:59:44;18.80;66.40
38488;DHT22;57384;51.986;4.458;2023-08-20T05:02:17;18.70;66.50
38488;DHT22;57384;51.986;4.458;2023-08-20T05:04:44;18.70;66.50
38488;DHT22;57384;51.986;4.458;2023-08-20T05:07:14;18.60;66.60
38488;DHT22;57384;51.986;4.458;2023-08-20T05:09:44;18.60;66.60
38488;DHT22;57384;51.986;4.458;2023-08-20T05:12:11;18.60;66.70
38488;DHT22;57384;51.986;4.458;2023-08-20T05:14:42;18.60;66.80
38488;DHT22;57384;51.986;4.458;2023-08-20T05:17:09;18.60;67.00
38488;DHT22;57384;51.986;4.458;2023-08-20T05:19:36;18.60;67.00
38488;DHT22;57384;51.986;4.458;2023-08-20T05:22:04;18.60;66.90
38488;DHT22;57384;51.986;4.458;2023-08-20T05:24:31;18.50;67.20
38488;DHT22;57384;51.986;4.458;2023-08-20T05:27:13;18.50;67.10
38488;DHT22;57384;51.986;4.458;2023-08-20T05:29:40;18.50;67.30
38488;DHT22;57384;51.986;4.458;2023-08-20T05:32:07;18.50;67.10
38488;DHT22;57384;51.986;4.458;2023-08-20T05:34:34;18.50;67.00
38488;DHT22;57384;51.986;4.458;2023-08-20T05:37:02;18.50;67.20
38488;DHT22;57384;51.986;4.458;2023-08-20T05:39:30;18.50;67.10
38488;DHT22;57384;51.986;4.458;2023-08-20T05:41:57;18.50;67.10
38488;DHT22;57384;51.986;4.458;2023-08-20T05:44:25;18.50;67.20
38488;DHT22;57384;51.986;4.458;2023-08-20T05:46:54;18.50;67.20
38488;DHT22;57384;51.986;4.458;2023-08-20T05:49:27;18.60;67.40
38488;DHT22;57384;51.986;4.458;2023-08-20T05:51:53;18.60;67.50
38488;DHT22;57384;51.986;4.458;2023-08-20T05:54:20;18.60;67.10
38488;DHT22;57384;51.986;4.458;2023-08-20T05:56:52;18.60;67.40
38488;DHT22;57384;51.986;4.458;2023-08-20T05:59:19;18.60;67.80
38488;DHT22;57384;51.986;4.458;2023-08-20T06:01:45;18.60;68.00
38488;DHT22;57384;51.986;4.458;2023-08-20T06:04:12;18.60;68.40
38488;DHT22;57384;51.986;4.458;2023-08-20T06:06:39;18.60;69.00
38488;DHT22;57384;51.986;4.458;2023-08-20T06:09:06;18.70;69.20
38488;DHT22;57384;51.986;4.458;2023-08-20T06:11:33;18.70;69.70
38488;DHT22;57384;51.986;4.458;2023-08-20T06:14:00;18.70;70.20
38488;DHT22;57384;51.986;4.458;2023-08-20T06:16:28;18.80;70.40
38488;DHT22;57384;51.986;4.458;2023-08-20T06:18:55;18.80;70.80
38488;DHT22;57384;51.986;4.458;2023-08-20T06:21:22;18.90;71.00
38488;DHT22;57384;51.986;4.458;2023-08-20T06:23:49;18.90;71.30
38488;DHT22;57384;51.986;4.458;2023-08-20T06:26:16;19.00;71.00
38488;DHT22;57384;51.986;4.458;2023-08-20T06:28:42;19.00;71.20
38488;DHT22;57384;51.986;4.458;2023-08-20T06:31:09;19.10;71.40
38488;DHT22;57384;51.986;4.458;2023-08-20T06:33:35;19.20;71.70
38488;DHT22;57384;51.986;4.458;2023-08-20T06:36:03;19.20;71.80
38488;DHT22;57384;51.986;4.458;2023-08-20T06:38:31;19.30;71.80
38488;DHT22;57384;51.986;4.458;2023-08-20T06:40:58;19.40;71.80
38488;DHT22;57384;51.986;4.458;2023-08-20T06:43:24;19.40;71.80
38488;DHT22;57384;51.986;4.458;2023-08-20T06:45:52;19.50;71.90
38488;DHT22;57384;51.986;4.458;2023-08-20T06:48:26;19.60;71.90
38488;DHT22;57384;51.986;4.458;2023-08-20T06:50:52;19.70;72.10
38488;DHT22;57384;51.986;4.458;2023-08-20T06:53:19;19.70;72.00
38488;DHT22;57384;51.986;4.458;2023-08-20T06:55:45;19.80;72.00
38488;DHT22;57384;51.986;4.458;2023-08-20T06:58:18;19.90;72.10
38488;DHT22;57384;51.986;4.458;2023-08-20T07:00:48;20.00;72.10
38488;DHT22;57384;51.986;4.458;2023-08-20T07:03:14;20.10;72.20
38488;DHT22;57384;51.986;4.458;2023-08-20T07:05:42;20.20;72.10
38488;DHT22;57384;51.986;4.458;2023-08-20T07:08:10;20.30;72.20
38488;DHT22;57384;51.986;4.458;2023-08-20T07:10:39;20.40;72.10
38488;DHT22;57384;51.986;4.458;2023-08-20T07:13:06;20.50;71.90
38488;DHT22;57384;51.986;4.458;2023-08-20T07:15:32;20.60;71.70
38488;DHT22;57384;51.986;4.458;2023-08-20T07:18:00;20.70;71.50
38488;DHT22;57384;51.986;4.458;2023-08-20T07:20:28;20.80;71.20
38488;DHT22;57384;51.986;4.458;2023-08-20T07:22:54;21.00;71.20
38488;DHT22;57384;51.986;4.458;2023-08-20T07:25:21;21.10;71.00
38488;DHT22;57384;51.986;4.458;2023-08-20T07:27:47;21.30;71.40
38488;DHT22;57384;51.986;4.458;2023-08-20T07:30:14;21.40;70.50
38488;DHT22;57384;51.986;4.458;2023-08-20T07:32:48;21.60;70.50
38488;DHT22;57384;51.986;4.458;2023-08-20T07:35:14;21.70;70.30
38488;DHT22;57384;51.986;4.458;2023-08-20T07:37:41;21.80;69.90
38488;DHT22;57384;51.986;4.458;2023-08-20T07:40:08;22.00;69.70
38488;DHT22;57384;51.986;4.458;2023-08-20T07:42:36;22.20;69.40
38488;DHT22;57384;51.986;4.458;2023-08-20T07:45:09;22.40;68.90
38488;DHT22;57384;51.986;4.458;2023-08-20T07:47:36;22.50;68.60
38488;DHT22;57384;51.986;4.458;2023-08-20T07:50:09;22.60;68.20
38488;DHT22;57384;51.986;4.458;2023-08-20T07:52:37;22.80;68.10
38488;DHT22;57384;51.986;4.458;2023-08-20T07:55:04;23.10;68.20
38488;DHT22;57384;51.986;4.458;2023-08-20T07:57:30;23.30;68.10
38488;DHT22;57384;51.986;4.458;2023-08-20T08:00:00;23.50;67.90
38488;DHT22;57384;51.986;4.458;2023-08-20T08:02:27;23.80;67.60
38488;DHT22;57384;51.986;4.458;2023-08-20T08:04:58;24.00;67.20
38488;DHT22;57384;51.986;4.458;2023-08-20T08:07:24;24.20;67.20
38488;DHT22;57384;51.986;4.458;2023-08-20T08:09:54;24.50;66.80
38488;DHT22;57384;51.986;4.458;2023-08-20T08:12:21;24.70;66.70
38488;DHT22;57384;51.986;4.458;2023-08-20T08:14:48;25.00;66.60
38488;DHT22;57384;51.986;4.458;2023-08-20T08:17:15;25.20;66.50
38488;DHT22;57384;51.986;4.458;2023-08-20T08:19:45;25.50;66.80
38488;DHT22;57384;51.986;4.458;2023-08-20T08:22:13;25.70;65.40
38488;DHT22;57384;51.986;4.458;2023-08-20T08:24:42;25.90;65.40
38488;DHT22;57384;51.986;4.458;2023-08-20T08:27:19;26.20;65.60
38488;DHT22;57384;51.986;4.458;2023-08-20T08:29:46;26.40;65.80
38488;DHT22;57384;51.986;4.458;2023-08-20T08:32:14;26.60;65.40
38488;DHT22;57384;51.986;4.458;2023-08-20T08:34:40;26.90;65.00
38488;DHT22;57384;51.986;4.458;2023-08-20T08:37:08;27.10;65.00
38488;DHT22;57384;51.986;4.458;2023-08-20T08:39:38;27.30;64.80
38488;DHT22;57384;51.986;4.458;2023-08-20T08:42:10;27.50;65.20
38488;DHT22;57384;51.986;4.458;2023-08-20T08:44:42;27.70;64.80
38488;DHT22;57384;51.986;4.458;2023-08-20T08:47:10;27.90;64.30
38488;DHT22;57384;51.986;4.458;2023-08-20T08:49:38;28.10;64.40
38488;DHT22;57384;51.986;4.458;2023-08-20T08:52:06;28.30;64.10
38488;DHT22;57384;51.986;4.458;2023-08-20T08:54:32;28.50;63.40
38488;DHT22;57384;51.986;4.458;2023-08-20T08:57:01;28.80;63.60
38488;DHT22;57384;51.986;4.458;2023-08-20T08:59:29;28.90;63.40
38488;DHT22;57384;51.986;4.458;2023-08-20T09:02:08;29.10;63.40
38488;DHT22;57384;51.986;4.458;2023-08-20T09:04:42;29.30;63.20
38488;DHT22;57384;51.986;4.458;2023-08-20T09:07:13;29.60;63.10
38488;DHT22;57384;51.986;4.458;2023-08-20T09:09:57;29.80;63.00
38488;DHT22;57384;51.986;4.458;2023-08-20T09:12:34;29.90;61.60
38488;DHT22;57384;51.986;4.458;2023-08-20T09:15:10;30.20;62.10
38488;DHT22;57384;51.986;4.458;2023-08-20T09:17:37;30.40;61.10
38488;DHT22;57384;51.986;4.458;2023-08-20T09:20:09;30.60;60.80
38488;DHT22;57384;51.986;4.458;2023-08-20T09:23:00;30.70;59.90
38488;DHT22;57384;51.986;4.458;2023-08-20T09:25:29;30.90;60.40
38488;DHT22;57384;51.986;4.458;2023-08-20T09:27:55;31.10;60.00
38488;DHT22;57384;51.986;4.458;2023-08-20T09:30:24;31.30;60.40
38488;DHT22;57384;51.986;4.458;2023-08-20T09:33:02;31.40;60.30
38488;DHT22;57384;51.986;4.458;2023-08-20T09:35:29;31.60;60.60
38488;DHT22;57384;51.986;4.458;2023-08-20T09:37:59;31.70;59.90
38488;DHT22;57384;51.986;4.458;2023-08-20T09:40:29;31.80;60.10
38488;DHT22;57384;51.986;4.458;2023-08-20T09:42:57;32.00;59.60
38488;DHT22;57384;51.986;4.458;2023-08-20T09:45:34;32.20;59.10
38488;DHT22;57384;51.986;4.458;2023-08-20T09:48:06;32.30;58.60
38488;DHT22;57384;51.986;4.458;2023-08-20T09:50:35;32.50;57.10
38488;DHT22;57384;51.986;4.458;2023-08-20T09:53:34;32.60;57.80
38488;DHT22;57384;51.986;4.458;2023-08-20T09:56:09;32.80;57.20
38488;DHT22;57384;51.986;4.458;2023-08-20T09:58:38;32.90;56.70
38488;DHT22;57384;51.986;4.458;2023-08-20T10:01:06;33.10;56.50
38488;DHT22;57384;51.986;4.458;2023-08-20T10:03:43;33.20;55.80
38488;DHT22;57384;51.986;4.458;2023-08-20T10:06:11;33.40;55.70
38488;DHT22;57384;51.986;4.458;2023-08-20T10:08:38;33.50;55.60
38488;DHT22;57384;51.986;4.458;2023-08-20T10:11:09;33.60;55.20
38488;DHT22;57384;51.986;4.458;2023-08-20T10:13:37;33.70;55.30
38488;DHT22;57384;51.986;4.458;2023-08-20T10:16:06;33.90;54.90
38488;DHT22;57384;51.986;4.458;2023-08-20T10:18:34;34.00;54.10
38488;DHT22;57384;51.986;4.458;2023-08-20T10:21:04;34.20;53.80
38488;DHT22;57384;51.986;4.458;2023-08-20T10:23:32;34.20;54.00
38488;DHT22;57384;51.986;4.458;2023-08-20T10:26:10;34.30;53.30
38488;DHT22;57384;51.986;4.458;2023-08-20T10:28:40;34.40;52.90
38488;DHT22;57384;51.986;4.458;2023-08-20T10:32:00;34.60;52.80
38488;DHT22;57384;51.986;4.458;2023-08-20T10:34:35;34.70;53.10
38488;DHT22;57384;51.986;4.458;2023-08-20T10:37:29;34.70;52.30
38488;DHT22;57384;51.986;4.458;2023-08-20T10:40:03;34.90;52.30
38488;DHT22;57384;51.986;4.458;2023-08-20T10:42:31;34.90;51.70
38488;DHT22;57384;51.986;4.458;2023-08-20T10:45:12;35.00;51.60
38488;DHT22;57384;51.986;4.458;2023-08-20T10:47:57;35.10;51.40
38488;DHT22;57384;51.986;4.458;2023-08-20T10:50:29;35.20;51.80
38488;DHT22;57384;51.986;4.458;2023-08-20T10:53:08;35.20;51.00
38488;DHT22;57384;51.986;4.458;2023-08-20T10:55:48;35.40;51.10
38488;DHT22;57384;51.986;4.458;2023-08-20T10:58:36;35.40;50.80
38488;DHT22;57384;51.986;4.458;2023-08-20T11:01:48;35.50;50.30
38488;DHT22;57384;51.986;4.458;2023-08-20T11:04:42;35.60;49.90
38488;DHT22;57384;51.986;4.458;2023-08-20T11:07:17;35.70;50.30
38488;DHT22;57384;51.986;4.458;2023-08-20T11:09:47;35.70;49.50
38488;DHT22;57384;51.986;4.458;2023-08-20T11:12:19;35.80;49.90
38488;DHT22;57384;51.986;4.458;2023-08-20T11:14:47;35.90;50.30
38488;DHT22;57384;51.986;4.458;2023-08-20T11:17:16;36.00;49.10
38488;DHT22;57384;51.986;4.458;2023-08-20T11:19:48;36.10;49.40
38488;DHT22;57384;51.986;4.458;2023-08-20T11:22:28;36.20;48.60
38488;DHT22;57384;51.986;4.458;2023-08-20T11:25:18;36.30;49.20
38488;DHT22;57384;51.986;4.458;2023-08-20T11:27:55;36.40;49.50
38488;DHT22;57384;51.986;4.458;2023-08-20T11:30:37;36.50;48.80
38488;DHT22;57384;51.986;4.458;2023-08-20T11:33:13;36.60;47.20
38488;DHT22;57384;51.986;4.458;2023-08-20T11:36:08;36.60;48.00
38488;DHT22;57384;51.986;4.458;2023-08-20T11:39:09;36.80;47.50
38488;DHT22;57384;51.986;4.458;2023-08-20T11:41:35;36.90;47.90
38488;DHT22;57384;51.986;4.458;2023-08-20T11:44:02;37.00;46.90
38488;DHT22;57384;51.986;4.458;2023-08-20T11:46:51;37.10;47.40
38488;DHT22;57384;51.986;4.458;2023-08-20T11:49:29;37.20;47.30
38488;DHT22;57384;51.986;4.458;2023-08-20T11:52:12;37.30;47.30
38488;DHT22;57384;51.986;4.458;2023-08-20T11:54:42;37.40;46.90
38488;DHT22;57384;51.986;4.458;2023-08-20T11:57:11;37.50;47.20
38488;DHT22;57384;51.986;4.458;2023-08-20T11:59:50;37.60;46.40
38488;DHT22;57384;51.986;4.458;2023-08-20T12:02:27;37.80;46.20
38488;DHT22;57384;51.986;4.458;2023-08-20T12:04:58;37.90;46.30
38488;DHT22;57384;51.986;4.458;2023-08-20T12:07:35;38.00;46.10
38488;DHT22;57384;51.986;4.458;2023-08-20T12:10:20;38.10;45.40
38488;DHT22;57384;51.986;4.458;2023-08-20T12:12:52;38.20;45.30
38488;DHT22;57384;51.986;4.458;2023-08-20T12:15:27;38.30;44.20
38488;DHT22;57384;51.986;4.458;2023-08-20T12:18:14;38.40;43.80
38488;DHT22;57384;51.986;4.458;2023-08-20T12:20:56;38.60;44.50
38488;DHT22;57384;51.986;4.458;2023-08-20T12:23:28;38.70;43.60
38488;DHT22;57384;51.986;4.458;2023-08-20T12:26:20;38.80;44.10
38488;DHT22;57384;51.986;4.458;2023-08-20T12:28:59;38.90;43.90
38488;DHT22;57384;51.986;4.458;2023-08-20T12:31:43;39.10;44.00
38488;DHT22;57384;51.986;4.458;2023-08-20T12:34:23;39.20;44.40
38488;DHT22;57384;51.986;4.458;2023-08-20T12:36:53;39.30;43.70
38488;DHT22;57384;51.986;4.458;2023-08-20T12:39:34;39.40;43.40
38488;DHT22;57384;51.986;4.458;2023-08-20T12:42:06;39.60;42.70
38488;DHT22;57384;51.986;4.458;2023-08-20T12:44:41;39.70;41.80
38488;DHT22;57384;51.986;4.458;2023-08-20T12:47:33;39.80;42.00
38488;DHT22;57384;51.986;4.458;2023-08-20T12:50:02;40.00;41.70
38488;DHT22;57384;51.986;4.458;2023-08-20T12:52:35;40.00;42.10
38488;DHT22;57384;51.986;4.458;2023-08-20T12:55:20;40.20;41.90
38488;DHT22;57384;51.986;4.458;2023-08-20T12:57:55;40.30;41.60
38488;DHT22;57384;51.986;4.458;2023-08-20T13:00:40;40.40;40.90
38488;DHT22;57384;51.986;4.458;2023-08-20T13:03:19;40.50;39.90
38488;DHT22;57384;51.986;4.458;2023-08-20T13:05:52;40.60;39.20
38488;DHT22;57384;51.986;4.458;2023-08-20T13:08:25;40.60;38.90
38488;DHT22;57384;51.986;4.458;2023-08-20T13:10:58;40.70;38.80
38488;DHT22;57384;51.986;4.458;2023-08-20T13:13:52;40.70;38.10
38488;DHT22;57384;51.986;4.458;2023-08-20T13:16:28;40.70;38.30
38488;DHT22;57384;51.986;4.458;2023-08-20T13:19:36;40.80;38.40
38488;DHT22;57384;51.986;4.458;2023-08-20T13:23:18;40.90;38.40
38488;DHT22;57384;51.986;4.458;2023-08-20T13:26:35;41.00;38.10
38488;DHT22;57384;51.986;4.458;2023-08-20T13:29:15;41.20;38.10
38488;DHT22;57384;51.986;4.458;2023-08-20T13:31:46;41.20;37.60
38488;DHT22;57384;51.986;4.458;2023-08-20T13:34:16;41.30;37.70
38488;DHT22;57384;51.986;4.458;2023-08-20T13:36:50;41.40;37.50
38488;DHT22;57384;51.986;4.458;2023-08-20T13:39:24;41.40;37.60
38488;DHT22;57384;51.986;4.458;2023-08-20T13:42:10;41.40;37.50
38488;DHT22;57384;51.986;4.458;2023-08-20T13:44:38;41.40;37.30
38488;DHT22;57384;51.986;4.458;2023-08-20T13:47:06;41.40;37.10
38488;DHT22;57384;51.986;4.458;2023-08-20T13:49:35;41.40;36.30
38488;DHT22;57384;51.986;4.458;2023-08-20T13:52:10;41.40;36.20
38488;DHT22;57384;51.986;4.458;2023-08-20T13:54:37;41.30;36.40
38488;DHT22;57384;51.986;4.458;2023-08-20T13:57:06;41.30;36.80
38488;DHT22;57384;51.986;4.458;2023-08-20T13:59:49;41.30;36.00
38488;DHT22;57384;51.986;4.458;2023-08-20T14:02:20;41.20;36.40
38488;DHT22;57384;51.986;4.458;2023-08-20T14:04:46;41.20;35.60
38488;DHT22;57384;51.986;4.458;2023-08-20T14:07:13;41.20;36.00
38488;DHT22;57384;51.986;4.458;2023-08-20T14:09:41;41.20;35.60
38488;DHT22;57384;51.986;4.458;2023-08-20T14:12:08;41.20;35.40
38488;DHT22;57384;51.986;4.458;2023-08-20T14:14:35;41.20;35.40
38488;DHT22;57384;51.986;4.458;2023-08-20T14:17:02;41.20;35.10
38488;DHT22;57384;51.986;4.458;2023-08-20T14:19:29;41.20;34.80
38488;DHT22;57384;51.986;4.458;2023-08-20T14:21:57;41.20;34.70
38488;DHT22;57384;51.986;4.458;2023-08-20T14:24:24;41.20;34.40
38488;DHT22;57384;51.986;4.458;2023-08-20T14:26:51;41.20;34.10
38488;DHT22;57384;51.986;4.458;2023-08-20T14:29:19;41.20;34.10
38488;DHT22;57384;51.986;4.458;2023-08-20T14:31:47;41.20;34.10
38488;DHT22;57384;51.986;4.458;2023-08-20T14:34:13;41.20;34.10
38488;DHT22;57384;51.986;4.458;2023-08-20T14:36:40;41.20;33.80
38488;DHT22;57384;51.986;4.458;2023-08-20T14:39:12;41.10;33.70
38488;DHT22;57384;51.986;4.458;2023-08-20T14:41:38;41.00;33.70
38488;DHT22;57384;51.986;4.458;2023-08-20T14:44:05;41.00;33.80
38488;DHT22;57384;51.986;4.458;2023-08-20T14:46:32;40.90;33.60
38488;DHT22;57384;51.986;4.458;2023-08-20T14:48:58;40.80;33.70
38488;DHT22;57384;51.986;4.458;2023-08-20T14:51:25;40.60;33.80
38488;DHT22;57384;51.986;4.458;2023-08-20T14:53:53;40.40;33.60
38488;DHT22;57384;51.986;4.458;2023-08-20T14:56:19;40.20;33.80
38488;DHT22;57384;51.986;4.458;2023-08-20T14:58:46;40.00;34.20
38488;DHT22;57384;51.986;4.458;2023-08-20T15:01:13;39.80;34.00
38488;DHT22;57384;51.986;4.458;2023-08-20T15:03:39;39.60;34.10
38488;DHT22;57384;51.986;4.458;2023-08-20T15:06:06;39.40;34.20
38488;DHT22;57384;51.986;4.458;2023-08-20T15:08:32;39.20;34.30
38488;DHT22;57384;51.986;4.458;2023-08-20T15:11:01;39.00;34.90
38488;DHT22;57384;51.986;4.458;2023-08-20T15:13:31;38.80;34.60
38488;DHT22;57384;51.986;4.458;2023-08-20T15:15:59;38.50;34.60
38488;DHT22;57384;51.986;4.458;2023-08-20T15:18:26;38.40;34.80
38488;DHT22;57384;51.986;4.458;2023-08-20T15:20:56;38.10;34.70
38488;DHT22;57384;51.986;4.458;2023-08-20T15:23:26;37.90;34.60
38488;DHT22;57384;51.986;4.458;2023-08-20T15:25:54;37.70;34.90
38488;DHT22;57384;51.986;4.458;2023-08-20T15:28:22;37.50;35.00
38488;DHT22;57384;51.986;4.458;2023-08-20T15:30:48;37.30;35.10
38488;DHT22;57384;51.986;4.458;2023-08-20T15:33:16;37.00;35.20
38488;DHT22;57384;51.986;4.458;2023-08-20T15:36:08;36.80;35.40
38488;DHT22;57384;51.986;4.458;2023-08-20T15:38:34;36.50;35.60
38488;DHT22;57384;51.986;4.458;2023-08-20T15:41:05;36.40;36.10
38488;DHT22;57384;51.986;4.458;2023-08-20T15:43:32;36.10;35.90
38488;DHT22;57384;51.986;4.458;2023-08-20T15:46:01;35.90;36.20
38488;DHT22;57384;51.986;4.458;2023-08-20T15:48:29;35.70;36.20
38488;DHT22;57384;51.986;4.458;2023-08-20T15:50:56;35.60;36.60
38488;DHT22;57384;51.986;4.458;2023-08-20T15:53:22;35.30;36.90
38488;DHT22;57384;51.986;4.458;2023-08-20T15:55:52;35.10;36.70
38488;DHT22;57384;51.986;4.458;2023-08-20T15:58:29;35.00;36.90
38488;DHT22;57384;51.986;4.458;2023-08-20T16:00:57;34.70;37.00
38488;DHT22;57384;51.986;4.458;2023-08-20T16:03:24;34.60;37.10